Time;durP1;ratioP1;P1;durP2;ratioP2;P2;SDS_P1;SDS_P2;PMS_P1;PMS_P2;Temp;Humidity;BMP_temperature;BMP_pressure;BME280_temperature;BME280_humidity;BME280_pressure;Samples;Min_cycle;Max_cycle;Signal;HPM_P1;HPM_P2
2022/05/19 00:01:04;;;;;;;11.20;7.00;;;;;;;;;;5095128;28;20193;-69
2022/05/19 00:03:31;;;;;;;13.65;7.72;;;;;;;;;;5066714;28;20198;-68
2022/05/19 00:05:58;;;;;;;12.68;7.18;;;;;;;;;;5078824;28;20205;-70
2022/05/19 00:08:24;;;;;;;11.52;7.32;;;;;;;;;;5087514;28;20284;-70
2022/05/19 00:10:50;;;;;;;11.02;7.68;;;;;;;;;;5101034;28;20587;-70
2022/05/19 00:13:16;;;;;;;13.32;7.82;;;;;;;;;;5068092;28;20193;-70
2022/05/19 00:15:42;;;;;;;14.73;7.80;;;;;;;;;;5069134;28;20193;-69
2022/05/19 00:18:08;;;;;;;12.82;8.15;;;;;;;;;;5092052;28;20198;-69
2022/05/19 00:20:34;;;;;;;12.48;8.15;;;;;;;;;;5091476;28;20197;-69
2022/05/19 00:23:01;;;;;;;11.50;8.50;;;;;;;;;;5087372;28;20193;-69
2022/05/19 00:25:27;;;;;;;15.25;8.88;;;;;;;;;;5105269;28;20235;-69
2022/05/19 00:27:53;;;;;;;13.90;8.88;;;;;;;;;;5070736;28;20200;-68
2022/05/19 00:30:19;;;;;;;16.20;9.27;;;;;;;;;;5099216;28;20549;-69
2022/05/19 00:32:45;;;;;;;18.65;10.02;;;;;;;;;;5091029;28;20258;-70
2022/05/19 00:35:11;;;;;;;13.18;9.48;;;;;;;;;;5087703;28;20545;-70
2022/05/19 00:37:37;;;;;;;14.52;9.40;;;;;;;;;;5090096;28;20243;-69
2022/05/19 00:40:03;;;;;;;17.33;9.82;;;;;;;;;;5073569;28;20189;-69
2022/05/19 00:42:44;;;;;;;15.32;9.70;;;;;;;;;;5074993;28;20177;-70
2022/05/19 00:45:25;;;;;;;17.20;10.18;;;;;;;;;;5069817;28;20252;-69
2022/05/19 00:48:09;;;;;;;18.63;11.27;;;;;;;;;;5086195;28;20219;-70
2022/05/19 00:50:42;;;;;;;16.02;10.85;;;;;;;;;;5084285;28;20633;-69
2022/05/19 00:53:12;;;;;;;24.52;11.07;;;;;;;;;;5086989;28;20275;-69
2022/05/19 00:55:41;;;;;;;18.92;11.60;;;;;;;;;;5087431;28;20177;-68
2022/05/19 00:58:19;;;;;;;17.65;11.57;;;;;;;;;;5088863;28;20190;-69
2022/05/19 01:00:46;;;;;;;18.33;11.77;;;;;;;;;;5085898;28;20283;-68
2022/05/19 01:03:13;;;;;;;19.70;12.20;;;;;;;;;;5072780;28;20201;-69
2022/05/19 01:05:49;;;;;;;22.25;12.10;;;;;;;;;;5090273;28;20206;-69
2022/05/19 01:08:24;;;;;;;19.98;12.45;;;;;;;;;;5081001;28;20194;-69
2022/05/19 01:10:51;;;;;;;17.05;12.05;;;;;;;;;;5088807;28;20214;-70
2022/05/19 01:13:17;;;;;;;21.95;12.55;;;;;;;;;;5100383;28;20182;-70
2022/05/19 01:15:45;;;;;;;19.95;12.50;;;;;;;;;;5086917;28;20197;-70
2022/05/19 01:18:12;;;;;;;21.60;12.98;;;;;;;;;;5099443;28;20189;-70
2022/05/19 01:20:38;;;;;;;19.00;12.57;;;;;;;;;;5087576;28;20185;-70
2022/05/19 01:23:12;;;;;;;17.15;12.43;;;;;;;;;;5089324;28;20632;-69
2022/05/19 01:25:52;;;;;;;21.63;13.38;;;;;;;;;;5074073;28;20796;-70
2022/05/19 01:28:18;;;;;;;19.92;13.25;;;;;;;;;;5097078;28;20262;-70
2022/05/19 01:30:45;;;;;;;19.55;13.32;;;;;;;;;;5091423;28;20209;-69
2022/05/19 01:33:11;;;;;;;18.48;13.73;;;;;;;;;;5100506;28;20584;-69
2022/05/19 01:35:37;;;;;;;21.83;13.23;;;;;;;;;;5098968;28;20177;-68
2022/05/19 01:38:06;;;;;;;23.40;13.60;;;;;;;;;;5059760;28;20246;-69
2022/05/19 01:40:55;;;;;;;20.30;14.70;;;;;;;;;;5075678;28;20192;-69
2022/05/19 01:43:26;;;;;;;21.17;13.98;;;;;;;;;;5095749;28;20220;-70
2022/05/19 01:45:59;;;;;;;17.05;13.45;;;;;;;;;;5076192;28;20220;-70
2022/05/19 01:48:34;;;;;;;22.42;13.90;;;;;;;;;;5098185;28;20186;-69
2022/05/19 01:51:11;;;;;;;21.58;14.02;;;;;;;;;;5070261;28;20173;-70
2022/05/19 01:53:41;;;;;;;22.58;13.68;;;;;;;;;;5090598;28;20174;-70
2022/05/19 01:56:11;;;;;;;19.58;13.30;;;;;;;;;;5094963;28;20633;-70
2022/05/19 01:58:46;;;;;;;22.88;13.93;;;;;;;;;;5095066;28;20186;-68
2022/05/19 02:01:14;;;;;;;22.42;13.75;;;;;;;;;;5085305;28;20231;-69
2022/05/19 02:04:04;;;;;;;18.90;13.95;;;;;;;;;;5076451;28;20177;-71
2022/05/19 02:06:42;;;;;;;22.95;14.93;;;;;;;;;;5105126;28;20535;-70
2022/05/19 02:09:12;;;;;;;23.70;16.17;;;;;;;;;;5091781;28;20185;-70
2022/05/19 02:11:42;;;;;;;26.15;15.73;;;;;;;;;;5071517;28;20219;-70
2022/05/19 02:14:17;;;;;;;27.80;16.48;;;;;;;;;;5097838;28;20217;-69
2022/05/19 02:16:44;;;;;;;22.02;15.15;;;;;;;;;;5101553;28;20185;-70
2022/05/19 02:19:11;;;;;;;25.27;15.60;;;;;;;;;;5079973;28;20294;-69
2022/05/19 02:21:37;;;;;;;25.45;16.05;;;;;;;;;;5106115;28;20273;-69
2022/05/19 02:24:04;;;;;;;26.20;17.42;;;;;;;;;;5099174;28;20221;-71
2022/05/19 02:26:34;;;;;;;25.08;16.70;;;;;;;;;;5091237;28;20206;-70
2022/05/19 02:29:02;;;;;;;24.60;17.33;;;;;;;;;;5095173;28;20538;-69
2022/05/19 02:31:29;;;;;;;25.77;17.35;;;;;;;;;;5081761;28;20209;-69
2022/05/19 02:33:55;;;;;;;27.13;17.40;;;;;;;;;;5103626;28;20185;-69
2022/05/19 02:36:21;;;;;;;25.92;17.05;;;;;;;;;;5084511;28;20305;-70
2022/05/19 02:38:47;;;;;;;24.85;17.83;;;;;;;;;;5079709;28;20673;-70
2022/05/19 02:41:14;;;;;;;23.48;16.83;;;;;;;;;;5092016;28;20205;-70
2022/05/19 02:43:40;;;;;;;27.17;17.50;;;;;;;;;;5074631;28;20876;-69
2022/05/19 02:46:06;;;;;;;25.15;17.27;;;;;;;;;;5092870;28;20254;-70
2022/05/19 02:48:33;;;;;;;33.53;17.90;;;;;;;;;;5071377;28;20174;-69
2022/05/19 02:51:00;;;;;;;26.27;16.85;;;;;;;;;;5097176;28;20206;-70
2022/05/19 02:53:26;;;;;;;27.42;17.98;;;;;;;;;;5095021;28;20178;-69
2022/05/19 02:55:54;;;;;;;34.13;20.65;;;;;;;;;;5094956;28;20182;-70
2022/05/19 02:58:20;;;;;;;40.00;21.10;;;;;;;;;;5070872;28;20182;-68
2022/05/19 03:00:47;;;;;;;42.00;23.17;;;;;;;;;;5091652;28;20220;-69
2022/05/19 03:03:13;;;;;;;39.72;24.15;;;;;;;;;;5098378;28;20197;-69
2022/05/19 03:05:40;;;;;;;40.15;24.77;;;;;;;;;;5097846;28;20219;-68
2022/05/19 03:08:07;;;;;;;36.92;25.02;;;;;;;;;;5102343;28;20192;-69
2022/05/19 03:10:33;;;;;;;37.95;24.42;;;;;;;;;;5090332;28;20259;-69
2022/05/19 03:12:59;;;;;;;43.08;24.90;;;;;;;;;;5102612;28;20299;-70
2022/05/19 03:15:26;;;;;;;42.20;26.60;;;;;;;;;;5102953;28;20543;-69
2022/05/19 03:17:52;;;;;;;43.10;25.92;;;;;;;;;;5090490;28;20205;-69
2022/05/19 03:20:18;;;;;;;41.78;25.38;;;;;;;;;;5097097;28;20221;-69
2022/05/19 03:22:44;;;;;;;38.03;25.88;;;;;;;;;;5100105;28;20178;-69
2022/05/19 03:25:12;;;;;;;39.85;26.92;;;;;;;;;;5106964;28;20289;-69
2022/05/19 03:27:38;;;;;;;39.67;23.83;;;;;;;;;;5080811;28;20248;-69
2022/05/19 03:30:06;;;;;;;37.30;25.10;;;;;;;;;;5076691;28;20219;-69
2022/05/19 03:32:33;;;;;;;36.58;26.65;;;;;;;;;;5092672;28;20186;-69
2022/05/19 03:34:59;;;;;;;37.85;26.05;;;;;;;;;;5095189;28;20189;-69
2022/05/19 03:37:26;;;;;;;39.40;27.27;;;;;;;;;;5095847;28;20194;-69
2022/05/19 03:39:52;;;;;;;38.15;26.92;;;;;;;;;;5072072;28;20323;-69
2022/05/19 03:42:18;;;;;;;40.05;27.08;;;;;;;;;;5088533;28;20190;-68
2022/05/19 03:44:44;;;;;;;43.03;27.88;;;;;;;;;;5090725;28;20202;-69
2022/05/19 03:47:10;;;;;;;38.58;26.85;;;;;;;;;;5100321;28;20211;-69
2022/05/19 03:49:36;;;;;;;36.00;26.63;;;;;;;;;;5079384;28;20185;-69
2022/05/19 03:52:04;;;;;;;36.40;24.88;;;;;;;;;;5088129;28;21838;-69
2022/05/19 03:54:30;;;;;;;39.22;27.02;;;;;;;;;;5070994;28;20207;-69
2022/05/19 03:56:56;;;;;;;37.83;26.98;;;;;;;;;;5095608;28;20277;-69
2022/05/19 03:59:22;;;;;;;40.33;26.10;;;;;;;;;;5088402;28;20186;-69
2022/05/19 04:01:48;;;;;;;37.00;23.70;;;;;;;;;;5093423;28;20265;-69
2022/05/19 04:04:14;;;;;;;32.08;22.50;;;;;;;;;;5087398;28;20545;-69
2022/05/19 04:06:41;;;;;;;34.58;23.00;;;;;;;;;;5097597;28;20300;-69
2022/05/19 04:09:07;;;;;;;35.45;24.30;;;;;;;;;;5071402;28;20270;-69
2022/05/19 04:11:33;;;;;;;37.88;25.73;;;;;;;;;;5088319;28;20239;-69
2022/05/19 04:13:59;;;;;;;39.25;26.50;;;;;;;;;;5097419;28;20180;-69
2022/05/19 04:16:25;;;;;;;37.05;27.67;;;;;;;;;;5091463;28;20181;-69
2022/05/19 04:18:52;;;;;;;41.53;27.30;;;;;;;;;;5076472;28;20937;-69
2022/05/19 04:21:18;;;;;;;42.58;28.65;;;;;;;;;;5089893;28;20235;-69
2022/05/19 04:23:44;;;;;;;41.58;29.75;;;;;;;;;;5096402;28;20249;-69
2022/05/19 04:26:10;;;;;;;40.47;29.98;;;;;;;;;;5085848;28;20205;-69
2022/05/19 04:28:36;;;;;;;46.10;31.13;;;;;;;;;;5080967;28;20761;-69
2022/05/19 04:31:02;;;;;;;42.45;29.80;;;;;;;;;;5084994;28;20174;-68
2022/05/19 04:33:28;;;;;;;42.78;30.00;;;;;;;;;;5065336;28;20182;-69
2022/05/19 04:35:55;;;;;;;45.10;29.85;;;;;;;;;;5089732;28;20190;-69
2022/05/19 04:38:22;;;;;;;44.50;29.75;;;;;;;;;;5082350;28;20190;-68
2022/05/19 04:40:48;;;;;;;41.30;29.10;;;;;;;;;;5083219;28;20205;-69
2022/05/19 04:43:22;;;;;;;45.58;29.80;;;;;;;;;;5082554;28;20218;-69
2022/05/19 04:45:53;;;;;;;42.03;30.33;;;;;;;;;;5087668;28;20301;-69
2022/05/19 04:48:19;;;;;;;43.28;30.48;;;;;;;;;;5091930;28;20217;-67
2022/05/19 04:50:45;;;;;;;40.55;31.38;;;;;;;;;;5090342;28;20193;-70
2022/05/19 04:53:11;;;;;;;50.45;32.83;;;;;;;;;;5086764;28;20267;-70
2022/05/19 04:55:38;;;;;;;44.08;32.47;;;;;;;;;;5092552;28;20615;-68
2022/05/19 04:58:05;;;;;;;45.85;32.15;;;;;;;;;;5088264;28;20235;-67
2022/05/19 05:00:32;;;;;;;44.92;32.05;;;;;;;;;;5087132;28;21007;-68
2022/05/19 05:02:58;;;;;;;48.28;32.17;;;;;;;;;;5099137;28;20285;-68
2022/05/19 05:05:24;;;;;;;45.60;29.92;;;;;;;;;;5088207;28;20529;-69
2022/05/19 05:07:50;;;;;;;40.63;29.15;;;;;;;;;;5085641;28;20622;-69
2022/05/19 05:10:16;;;;;;;41.92;31.77;;;;;;;;;;5067507;28;20242;-69
2022/05/19 05:12:42;;;;;;;44.25;31.92;;;;;;;;;;5086862;28;20193;-68
2022/05/19 05:15:09;;;;;;;47.13;31.85;;;;;;;;;;5072509;28;20209;-70
2022/05/19 05:17:36;;;;;;;40.10;29.63;;;;;;;;;;5067527;28;20174;-69
2022/05/19 05:20:03;;;;;;;38.00;30.13;;;;;;;;;;5087956;28;21068;-68
2022/05/19 05:22:30;;;;;;;43.10;30.33;;;;;;;;;;5098055;28;20189;-69
2022/05/19 05:24:56;;;;;;;40.80;30.60;;;;;;;;;;5088818;28;20221;-69
2022/05/19 05:27:22;;;;;;;41.58;31.98;;;;;;;;;;5076763;28;20237;-69
2022/05/19 05:29:51;;;;;;;41.45;32.08;;;;;;;;;;5073005;28;20197;-69
2022/05/19 05:32:18;;;;;;;40.50;31.05;;;;;;;;;;5091331;28;20217;-71
2022/05/19 05:34:44;;;;;;;41.60;30.60;;;;;;;;;;5088090;28;20182;-70
2022/05/19 05:37:10;;;;;;;41.28;31.83;;;;;;;;;;5089838;28;20405;-69
2022/05/19 05:39:36;;;;;;;44.45;32.08;;;;;;;;;;5091500;28;20225;-70
2022/05/19 05:42:04;;;;;;;43.83;33.28;;;;;;;;;;5090261;28;20197;-70
2022/05/19 05:44:30;;;;;;;47.63;34.97;;;;;;;;;;5086678;28;20277;-69
2022/05/19 05:46:56;;;;;;;46.40;34.92;;;;;;;;;;5090131;28;20185;-70
2022/05/19 05:49:22;;;;;;;46.22;34.55;;;;;;;;;;5095163;28;20264;-70
2022/05/19 05:51:48;;;;;;;43.78;33.90;;;;;;;;;;5105693;28;20304;-70
2022/05/19 05:54:14;;;;;;;39.22;31.75;;;;;;;;;;5076545;28;20257;-69
2022/05/19 05:56:41;;;;;;;42.45;34.28;;;;;;;;;;5070321;28;20193;-69
2022/05/19 05:59:07;;;;;;;42.42;34.88;;;;;;;;;;5074596;28;20187;-69
2022/05/19 06:01:33;;;;;;;44.67;33.53;;;;;;;;;;5092823;28;20209;-69
2022/05/19 06:04:01;;;;;;;44.75;34.55;;;;;;;;;;5089617;28;20524;-69
2022/05/19 06:06:28;;;;;;;47.13;34.40;;;;;;;;;;5091039;28;20201;-70
2022/05/19 06:08:54;;;;;;;43.95;34.55;;;;;;;;;;5078060;28;20273;-69
2022/05/19 06:11:20;;;;;;;44.25;35.17;;;;;;;;;;5081512;28;20266;-69
2022/05/19 06:13:49;;;;;;;42.97;34.35;;;;;;;;;;5090630;28;20182;-69
2022/05/19 06:16:15;;;;;;;42.60;34.33;;;;;;;;;;5088472;28;20189;-69
2022/05/19 06:18:41;;;;;;;47.00;33.17;;;;;;;;;;5090054;28;20193;-69
2022/05/19 06:21:07;;;;;;;39.45;33.22;;;;;;;;;;5073865;28;20679;-68
2022/05/19 06:23:34;;;;;;;41.95;33.22;;;;;;;;;;5087661;28;21774;-68
2022/05/19 06:26:00;;;;;;;39.83;33.90;;;;;;;;;;5093682;28;20201;-69
2022/05/19 06:28:26;;;;;;;38.20;32.72;;;;;;;;;;5087714;28;20235;-68
2022/05/19 06:30:52;;;;;;;39.58;33.45;;;;;;;;;;5071383;28;20673;-69
2022/05/19 06:33:20;;;;;;;38.88;32.72;;;;;;;;;;5094403;28;20209;-68
2022/05/19 06:35:46;;;;;;;40.45;32.78;;;;;;;;;;5092474;28;20193;-69
2022/05/19 06:38:14;;;;;;;44.95;32.45;;;;;;;;;;5073245;28;20272;-69
2022/05/19 06:40:41;;;;;;;42.22;31.90;;;;;;;;;;5085908;28;20198;-69
2022/05/19 06:43:11;;;;;;;40.25;30.85;;;;;;;;;;5089426;28;20181;-69
2022/05/19 06:45:43;;;;;;;43.85;30.10;;;;;;;;;;5084375;28;20201;-68
2022/05/19 06:48:09;;;;;;;36.30;28.10;;;;;;;;;;5080884;28;20217;-69
2022/05/19 06:50:35;;;;;;;34.85;27.50;;;;;;;;;;5088040;28;20261;-69
2022/05/19 06:53:04;;;;;;;35.88;28.73;;;;;;;;;;5099900;28;20621;-68
2022/05/19 06:55:32;;;;;;;38.20;29.33;;;;;;;;;;5068460;28;20181;-69
2022/05/19 06:57:58;;;;;;;35.92;30.23;;;;;;;;;;5091806;28;20173;-69
2022/05/19 07:00:26;;;;;;;37.78;29.17;;;;;;;;;;5084214;28;20194;-69
2022/05/19 07:02:53;;;;;;;38.80;29.38;;;;;;;;;;5080583;28;20243;-69
2022/05/19 07:05:21;;;;;;;41.17;30.98;;;;;;;;;;5084565;28;20320;-70
2022/05/19 07:07:47;;;;;;;36.17;30.90;;;;;;;;;;5109063;28;20189;-70
2022/05/19 07:10:17;;;;;;;40.05;33.05;;;;;;;;;;5092796;28;20186;-69
2022/05/19 07:12:44;;;;;;;39.13;31.42;;;;;;;;;;5072162;28;20650;-68
2022/05/19 07:15:11;;;;;;;40.95;30.23;;;;;;;;;;5072153;28;20284;-69
2022/05/19 07:17:37;;;;;;;40.05;29.40;;;;;;;;;;5085626;28;20220;-69
2022/05/19 07:22:49;;;;;;;42.80;31.67;;;;;;;;;;5089994;28;20193;-69
2022/05/19 07:25:15;;;;;;;41.03;30.80;;;;;;;;;;5087165;28;20221;-69
2022/05/19 07:27:42;;;;;;;43.95;34.42;;;;;;;;;;5071415;28;20185;-69
2022/05/19 07:30:09;;;;;;;39.28;33.42;;;;;;;;;;5076777;28;20228;-70
2022/05/19 07:32:35;;;;;;;41.20;35.25;;;;;;;;;;5099322;28;20259;-69
2022/05/19 07:35:02;;;;;;;44.22;35.05;;;;;;;;;;5081864;28;20196;-69
2022/05/19 07:37:28;;;;;;;51.88;36.00;;;;;;;;;;5095158;28;20189;-70
2022/05/19 07:39:54;;;;;;;39.30;34.28;;;;;;;;;;5093522;28;20204;-70
2022/05/19 07:42:21;;;;;;;43.50;33.42;;;;;;;;;;5090998;28;20840;-70
2022/05/19 07:44:47;;;;;;;45.40;34.53;;;;;;;;;;5085662;28;20237;-70
2022/05/19 07:47:14;;;;;;;43.35;33.63;;;;;;;;;;5079855;28;20186;-69
2022/05/19 07:49:41;;;;;;;41.53;34.67;;;;;;;;;;5087394;28;20186;-68
2022/05/19 07:52:07;;;;;;;44.90;36.22;;;;;;;;;;5088874;28;20174;-69
2022/05/19 07:54:33;;;;;;;44.10;36.05;;;;;;;;;;5086058;28;20202;-69
2022/05/19 07:57:00;;;;;;;40.38;34.70;;;;;;;;;;5093187;28;20185;-69
2022/05/19 07:59:28;;;;;;;45.90;35.67;;;;;;;;;;5088636;28;20194;-70
2022/05/19 08:01:55;;;;;;;45.55;35.13;;;;;;;;;;5093446;28;20205;-69
2022/05/19 08:04:22;;;;;;;43.88;34.35;;;;;;;;;;5094141;28;20178;-69
2022/05/19 08:06:49;;;;;;;44.90;35.83;;;;;;;;;;5096629;28;20208;-69
2022/05/19 08:12:00;;;;;;;44.72;35.00;;;;;;;;;;5092688;28;20642;-69
2022/05/19 08:17:17;;;;;;;41.72;35.42;;;;;;;;;;5104600;28;20186;-70
2022/05/19 08:19:43;;;;;;;44.80;36.35;;;;;;;;;;5067425;28;20178;-70
2022/05/19 08:22:09;;;;;;;49.40;34.38;;;;;;;;;;5070101;28;20215;-69
2022/05/19 08:24:36;;;;;;;42.97;35.58;;;;;;;;;;5061089;28;20218;-68
2022/05/19 08:27:02;;;;;;;47.35;35.85;;;;;;;;;;5067930;28;20548;-69
2022/05/19 08:29:29;;;;;;;46.13;36.60;;;;;;;;;;5067760;28;20206;-69
2022/05/19 08:31:55;;;;;;;49.88;37.38;;;;;;;;;;5064694;28;20183;-70
2022/05/19 08:34:21;;;;;;;52.83;40.65;;;;;;;;;;5064396;28;20196;-68
2022/05/19 08:36:48;;;;;;;58.83;42.78;;;;;;;;;;5069100;28;20205;-69
2022/05/19 08:39:15;;;;;;;56.05;45.47;;;;;;;;;;5067228;28;20193;-68
2022/05/19 08:41:43;;;;;;;56.97;45.58;;;;;;;;;;5083650;28;20243;-68
2022/05/19 08:44:10;;;;;;;60.92;49.28;;;;;;;;;;5070606;28;20647;-68
2022/05/19 08:46:40;;;;;;;56.50;46.42;;;;;;;;;;5071416;28;20220;-68
2022/05/19 08:49:12;;;;;;;57.00;48.60;;;;;;;;;;5080128;28;20174;-67
2022/05/19 08:51:39;;;;;;;60.38;47.45;;;;;;;;;;5068671;28;20617;-68
2022/05/19 08:54:08;;;;;;;57.35;48.92;;;;;;;;;;5070974;28;20237;-68
2022/05/19 08:56:41;;;;;;;52.35;41.83;;;;;;;;;;5069514;28;20190;-68
2022/05/19 08:59:10;;;;;;;46.67;35.88;;;;;;;;;;5080888;28;20223;-69
2022/05/19 09:01:36;;;;;;;42.70;33.70;;;;;;;;;;5072232;28;20191;-69
2022/05/19 09:04:21;;;;;;;42.22;34.33;;;;;;;;;;5068745;28;20226;-69
2022/05/19 09:09:38;;;;;;;39.22;33.70;;;;;;;;;;5072350;28;20194;-70
2022/05/19 09:12:10;;;;;;;40.15;30.70;;;;;;;;;;5075140;28;20714;-69
2022/05/19 09:14:36;;;;;;;37.75;30.35;;;;;;;;;;5079277;28;20178;-69
2022/05/19 09:17:05;;;;;;;30.25;24.60;;;;;;;;;;5077644;28;20278;-69
2022/05/19 09:19:51;;;;;;;32.20;25.85;;;;;;;;;;5068919;28;20188;-70
2022/05/19 09:22:22;;;;;;;33.55;25.05;;;;;;;;;;5073610;28;20186;-68
2022/05/19 09:24:49;;;;;;;34.22;25.17;;;;;;;;;;5069156;28;20241;-70
2022/05/19 09:27:18;;;;;;;24.35;19.92;;;;;;;;;;5070255;28;20540;-69
2022/05/19 09:29:49;;;;;;;22.52;18.58;;;;;;;;;;5069802;28;20545;-69
2022/05/19 09:32:34;;;;;;;25.58;19.08;;;;;;;;;;5072140;28;20808;-70
2022/05/19 09:35:18;;;;;;;24.63;18.95;;;;;;;;;;5078003;28;20186;-69
2022/05/19 09:37:49;;;;;;;28.02;18.83;;;;;;;;;;5069478;28;20546;-69
2022/05/19 09:40:27;;;;;;;23.70;18.52;;;;;;;;;;5066375;28;20599;-70
2022/05/19 09:42:53;;;;;;;24.48;17.83;;;;;;;;;;5071212;28;20194;-71
2022/05/19 09:45:23;;;;;;;24.90;17.65;;;;;;;;;;5068408;28;20286;-70
2022/05/19 09:47:52;;;;;;;21.63;15.70;;;;;;;;;;5077273;28;20187;-69
2022/05/19 09:50:22;;;;;;;19.23;14.93;;;;;;;;;;5069597;28;20213;-70
2022/05/19 09:52:48;;;;;;;18.63;14.25;;;;;;;;;;5071283;28;20180;-70
2022/05/19 09:55:16;;;;;;;17.30;13.43;;;;;;;;;;5072735;28;20191;-69
2022/05/19 09:57:45;;;;;;;17.35;13.40;;;;;;;;;;5064221;28;20187;-69
2022/05/19 10:00:30;;;;;;;19.42;15.90;;;;;;;;;;5071097;28;20194;-70
2022/05/19 10:02:58;;;;;;;22.00;14.90;;;;;;;;;;5067326;28;20269;-70
2022/05/19 10:05:37;;;;;;;20.38;15.77;;;;;;;;;;5072057;28;20221;-69
2022/05/19 10:08:05;;;;;;;17.45;14.80;;;;;;;;;;5075028;28;20606;-70
2022/05/19 10:10:33;;;;;;;19.13;14.93;;;;;;;;;;5068911;28;20562;-69
2022/05/19 10:13:10;;;;;;;17.90;14.18;;;;;;;;;;5068914;28;20174;-69
2022/05/19 10:15:59;;;;;;;15.90;13.70;;;;;;;;;;5066932;28;20221;-69
2022/05/19 10:18:31;;;;;;;16.95;14.20;;;;;;;;;;5055448;28;20206;-70
2022/05/19 10:21:08;;;;;;;20.23;13.75;;;;;;;;;;5068688;28;20236;-69
2022/05/19 10:23:44;;;;;;;16.40;13.90;;;;;;;;;;5080007;28;20185;-69
2022/05/19 10:26:20;;;;;;;17.73;13.98;;;;;;;;;;5094051;28;20235;-69
2022/05/19 10:32:06;;;;;;;18.25;12.55;;;;;;;;;;5083985;28;20574;-69
2022/05/19 10:34:48;;;;;;;17.25;12.32;;;;;;;;;;5072114;28;20178;-69
2022/05/19 10:37:28;;;;;;;15.98;11.68;;;;;;;;;;5091834;28;20272;-69
2022/05/19 10:40:23;;;;;;;15.73;12.98;;;;;;;;;;5088107;28;20217;-70
2022/05/19 10:42:56;;;;;;;18.55;12.65;;;;;;;;;;5000946;28;20559;-69
2022/05/19 10:45:26;;;;;;;51.45;17.10;;;;;;;;;;5074753;28;20205;-73
2022/05/19 10:47:52;;;;;;;29.75;13.00;;;;;;;;;;5088593;28;20181;-74
2022/05/19 10:50:27;;;;;;;10.85;6.78;;;;;;;;;;5079038;28;20637;-75
2022/05/19 10:52:56;;;;;;;15.30;6.82;;;;;;;;;;5074307;28;20185;-76
2022/05/19 10:55:24;;;;;;;7.43;4.63;;;;;;;;;;5083573;28;20284;-74
2022/05/19 10:57:50;;;;;;;9.68;4.75;;;;;;;;;;5077624;28;20182;-75
2022/05/19 11:00:23;;;;;;;9.13;4.72;;;;;;;;;;5083761;28;20255;-76
2022/05/19 11:03:19;;;;;;;9.13;5.15;;;;;;;;;;5072075;28;20185;-76
2022/05/19 11:05:45;;;;;;;10.02;6.80;;;;;;;;;;4975996;28;20209;-76
2022/05/19 11:08:26;;;;;;;15.65;8.68;;;;;;;;;;5097672;28;20527;-78
2022/05/19 11:10:56;;;;;;;15.13;10.02;;;;;;;;;;5069637;28;20232;-78
2022/05/19 11:13:45;;;;;;;15.82;9.85;;;;;;;;;;5083940;28;20668;-77
2022/05/19 11:16:11;;;;;;;16.15;9.85;;;;;;;;;;5081400;28;20193;-78
2022/05/19 11:18:54;;;;;;;15.30;8.35;;;;;;;;;;5067614;28;20649;-78
2022/05/19 11:21:28;;;;;;;20.02;9.88;;;;;;;;;;5096048;28;20684;-76
2022/05/19 11:24:00;;;;;;;30.70;10.70;;;;;;;;;;5075809;28;20597;-77
2022/05/19 11:26:43;;;;;;;32.67;13.98;;;;;;;;;;5076097;28;20222;-78
2022/05/19 11:29:19;;;;;;;40.75;18.65;;;;;;;;;;5056657;28;20688;-78
2022/05/19 11:31:56;;;;;;;49.00;21.13;;;;;;;;;;5055692;28;20188;-79
2022/05/19 11:34:32;;;;;;;59.05;22.83;;;;;;;;;;5079474;28;20612;-78
2022/05/19 11:37:02;;;;;;;52.50;23.23;;;;;;;;;;5077801;28;20188;-76
2022/05/19 11:39:32;;;;;;;60.33;25.42;;;;;;;;;;5102335;28;20629;-77
2022/05/19 11:42:01;;;;;;;59.33;28.05;;;;;;;;;;5081406;28;20675;-77
2022/05/19 11:44:36;;;;;;;59.33;27.17;;;;;;;;;;5080841;28;20646;-78
2022/05/19 11:47:07;;;;;;;60.78;29.15;;;;;;;;;;5088274;28;20772;-76
2022/05/19 11:55:19;;;;;;;39.28;21.67;;;;;;;;;;5100653;28;20204;-77
2022/05/19 11:58:01;;;;;;;38.10;21.52;;;;;;;;;;5071104;28;20184;-76
2022/05/19 12:00:30;;;;;;;35.63;17.98;;;;;;;;;;5080722;28;20243;-76
2022/05/19 12:03:12;;;;;;;35.60;19.45;;;;;;;;;;5076964;28;20224;-77
2022/05/19 12:05:43;;;;;;;42.63;20.33;;;;;;;;;;5074199;28;20209;-77
2022/05/19 12:08:19;;;;;;;46.22;25.27;;;;;;;;;;5090748;28;20193;-78
2022/05/19 12:10:49;;;;;;;41.65;25.52;;;;;;;;;;5095774;28;20260;-75
2022/05/19 12:13:19;;;;;;;46.03;26.65;;;;;;;;;;5094802;28;20550;-76
2022/05/19 12:15:55;;;;;;;51.33;27.27;;;;;;;;;;5100116;28;20281;-78
2022/05/19 12:18:24;;;;;;;52.95;26.52;;;;;;;;;;5097775;28;20184;-76
2022/05/19 12:21:02;;;;;;;53.70;28.35;;;;;;;;;;5077921;28;20212;-76
2022/05/19 12:23:38;;;;;;;47.45;24.65;;;;;;;;;;5075144;28;20185;-74
2022/05/19 12:26:06;;;;;;;52.20;26.20;;;;;;;;;;5078869;28;20205;-74
2022/05/19 12:28:38;;;;;;;48.03;25.67;;;;;;;;;;5092305;28;20189;-76
2022/05/19 12:34:12;;;;;;;47.70;27.83;;;;;;;;;;5059526;28;20185;-77
2022/05/19 12:36:44;;;;;;;43.08;26.30;;;;;;;;;;5082173;28;20692;-76
2022/05/19 12:39:30;;;;;;;48.85;24.92;;;;;;;;;;5069228;28;20664;-78
2022/05/19 12:42:17;;;;;;;47.60;25.90;;;;;;;;;;5097725;28;20206;-75
2022/05/19 12:44:46;;;;;;;41.90;26.75;;;;;;;;;;5076887;28;20189;-76
2022/05/19 12:47:12;;;;;;;49.63;28.33;;;;;;;;;;5099796;28;20255;-75
2022/05/19 12:49:38;;;;;;;44.67;26.85;;;;;;;;;;5076341;28;20245;-75
2022/05/19 12:52:14;;;;;;;47.28;25.95;;;;;;;;;;5092686;28;20205;-74
2022/05/19 12:54:51;;;;;;;42.08;26.00;;;;;;;;;;5077659;28;20223;-75
2022/05/19 12:57:24;;;;;;;46.63;28.30;;;;;;;;;;5079226;28;20767;-75
2022/05/19 12:59:53;;;;;;;53.10;26.55;;;;;;;;;;5075095;28;20178;-75
2022/05/19 13:02:32;;;;;;;50.72;27.83;;;;;;;;;;5093709;28;20197;-75
2022/05/19 13:05:01;;;;;;;52.75;26.40;;;;;;;;;;5092571;28;20254;-75
2022/05/19 13:07:28;;;;;;;40.20;26.00;;;;;;;;;;5093897;28;20192;-74
2022/05/19 13:10:09;;;;;;;48.28;28.73;;;;;;;;;;5092192;28;20603;-74
2022/05/19 13:12:43;;;;;;;39.90;29.48;;;;;;;;;;5088901;28;20213;-75
2022/05/19 13:15:09;;;;;;;42.53;27.02;;;;;;;;;;5074402;28;20568;-74
2022/05/19 13:17:35;;;;;;;47.80;28.05;;;;;;;;;;5089375;28;20189;-74
2022/05/19 13:20:04;;;;;;;45.95;30.65;;;;;;;;;;5089947;28;20189;-74
2022/05/19 13:22:32;;;;;;;47.47;28.88;;;;;;;;;;5088679;28;20213;-74
2022/05/19 13:25:02;;;;;;;46.78;30.02;;;;;;;;;;5071124;28;20328;-73
2022/05/19 13:30:27;;;;;;;34.28;26.17;;;;;;;;;;5061200;28;20198;-73
2022/05/19 13:33:10;;;;;;;41.58;28.10;;;;;;;;;;5071561;28;20186;-73
2022/05/19 13:35:36;;;;;;;31.80;22.95;;;;;;;;;;5093633;28;20211;-73
2022/05/19 13:38:15;;;;;;;30.15;20.73;;;;;;;;;;5093524;28;20181;-72
2022/05/19 13:40:43;;;;;;;30.38;19.85;;;;;;;;;;5095372;28;20203;-73
2022/05/19 13:43:13;;;;;;;34.50;19.90;;;;;;;;;;5093307;28;20202;-73
2022/05/19 13:45:50;;;;;;;33.15;15.98;;;;;;;;;;5096056;28;20267;-73
2022/05/19 13:48:18;;;;;;;23.90;15.25;;;;;;;;;;5091920;28;20205;-71
2022/05/19 13:50:47;;;;;;;30.83;16.13;;;;;;;;;;5101901;28;20181;-72
2022/05/19 13:53:14;;;;;;;26.30;15.07;;;;;;;;;;5092267;28;20185;-71
2022/05/19 13:55:40;;;;;;;21.50;13.55;;;;;;;;;;5083377;28;20189;-72
2022/05/19 13:58:07;;;;;;;24.60;13.35;;;;;;;;;;5088838;28;20197;-72
2022/05/19 14:00:37;;;;;;;20.77;13.18;;;;;;;;;;5091779;28;20232;-72
2022/05/19 14:03:05;;;;;;;17.83;9.30;;;;;;;;;;5101144;28;20549;-74
2022/05/19 14:05:42;;;;;;;10.63;3.90;;;;;;;;;;5089247;28;20284;-72
2022/05/19 14:08:10;;;;;;;10.40;3.83;;;;;;;;;;5093969;28;20173;-72
2022/05/19 14:10:39;;;;;;;7.38;3.30;;;;;;;;;;5074667;28;20196;-70
2022/05/19 14:13:05;;;;;;;5.07;3.20;;;;;;;;;;5091963;28;20181;-72
2022/05/19 14:15:52;;;;;;;7.35;2.78;;;;;;;;;;5072476;28;20197;-71
2022/05/19 14:18:26;;;;;;;5.28;2.95;;;;;;;;;;5090472;28;20190;-71
2022/05/19 14:20:54;;;;;;;4.90;3.08;;;;;;;;;;5096172;28;20613;-72
2022/05/19 14:23:27;;;;;;;7.50;3.20;;;;;;;;;;5091409;28;20280;-72
2022/05/19 14:26:06;;;;;;;6.38;3.50;;;;;;;;;;5088286;28;20695;-71
2022/05/19 14:28:37;;;;;;;11.23;3.90;;;;;;;;;;5071375;28;20190;-71
2022/05/19 14:31:11;;;;;;;10.45;4.75;;;;;;;;;;5083477;28;20186;-71
2022/05/19 14:33:40;;;;;;;10.43;4.85;;;;;;;;;;5099851;28;20724;-72
2022/05/19 14:36:17;;;;;;;12.40;5.30;;;;;;;;;;5072095;28;20198;-72
2022/05/19 14:38:46;;;;;;;12.43;5.70;;;;;;;;;;5081270;28;20189;-70
2022/05/19 14:44:05;;;;;;;11.38;6.65;;;;;;;;;;5079661;28;20194;-69
2022/05/19 14:46:38;;;;;;;15.98;7.13;;;;;;;;;;5069495;28;20742;-70
2022/05/19 14:49:06;;;;;;;14.70;8.27;;;;;;;;;;5099137;28;20269;-68
2022/05/19 14:51:36;;;;;;;17.23;8.55;;;;;;;;;;5067105;28;21180;-69
2022/05/19 14:54:02;;;;;;;15.80;8.30;;;;;;;;;;5081063;28;20190;-69
2022/05/19 14:56:36;;;;;;;16.90;9.50;;;;;;;;;;5087026;28;20265;-70
2022/05/19 14:59:04;;;;;;;21.52;10.43;;;;;;;;;;5102533;28;20213;-70
2022/05/19 15:01:30;;;;;;;14.77;9.73;;;;;;;;;;5088347;28;20260;-69